Time;durP1;ratioP1;P1;durP2;ratioP2;P2;SDS_P1;SDS_P2;PMS_P1;PMS_P2;Temp;Humidity;BMP_temperature;BMP_pressure;BME280_temperature;BME280_humidity;BME280_pressure;Samples;Min_cycle;Max_cycle;Signal;HPM_P1;HPM_P2
2023/06/19 06:50:15;;;;;;;;;;;20.00;75.20;;;;;;6340814;22;19948;-95
2023/06/19 07:13:23;;;;;;;;;;;19.90;76.70;;;;;;6231970;22;19937;-94
2023/06/19 07:19:38;;;;;;;;;;;19.70;76.80;;;;;;6285990;22;19913;-95
2023/06/19 07:22:17;;;;;;;;;;;19.60;77.20;;;;;;6245887;22;19919;-93
2023/06/19 07:25:07;;;;;;;;;;;19.50;77.80;;;;;;6197655;22;19978;-96
2023/06/19 07:27:52;;;;;;;;;;;19.40;77.80;;;;;;6216672;22;19934;-94
2023/06/19 07:30:32;;;;;;;;;;;19.30;78.00;;;;;;6249553;22;19919;-94
2023/06/19 07:33:08;;;;;;;;;;;19.30;77.80;;;;;;6212425;22;19919;-96
2023/06/19 07:38:59;;;;;;;;;;;19.20;77.60;;;;;;6202326;22;19922;-94
2023/06/19 07:41:26;;;;;;;;;;;19.20;77.20;;;;;;6222652;22;20139;-96
2023/06/19 07:43:55;;;;;;;;;;;19.30;77.20;;;;;;6223548;22;19919;-96
2023/06/19 07:46:58;;;;;;;;;;;19.30;77.10;;;;;;6273048;22;19923;-95
2023/06/19 07:49:24;;;;;;;;;;;19.40;76.90;;;;;;6146151;23;19924;-96
2023/06/19 07:51:59;;;;;;;;;;;19.40;76.70;;;;;;6150397;22;19989;-96
2023/06/19 07:54:50;;;;;;;;;;;19.40;76.70;;;;;;6221975;22;19945;-94
2023/06/19 07:57:41;;;;;;;;;;;19.40;76.70;;;;;;6209997;22;19970;-95
2023/06/19 08:00:13;;;;;;;;;;;19.40;76.80;;;;;;6224612;22;20327;-96
2023/06/19 08:03:14;;;;;;;;;;;19.40;76.80;;;;;;6222228;22;19943;-95
2023/06/19 08:09:13;;;;;;;;;;;19.40;76.70;;;;;;6106990;23;20333;-96
2023/06/19 08:12:09;;;;;;;;;;;19.40;76.80;;;;;;6064256;23;19922;-95
2023/06/19 08:14:44;;;;;;;;;;;19.40;76.70;;;;;;5981033;23;19933;-96
2023/06/19 08:17:13;;;;;;;;;;;19.30;76.80;;;;;;6058838;23;20045;-95
2023/06/19 08:19:59;;;;;;;;;;;19.30;76.40;;;;;;6119756;23;19921;-96
2023/06/19 08:22:44;;;;;;;;;;;19.40;77.00;;;;;;6099683;23;20352;-96
2023/06/19 08:28:58;;;;;;;;;;;19.40;76.30;;;;;;6057166;23;19919;-96
2023/06/19 08:31:30;;;;;;;;;;;19.40;76.20;;;;;;6045155;23;19921;-96
2023/06/19 08:34:27;;;;;;;;;;;19.50;76.40;;;;;;6113664;23;19920;-96
2023/06/19 08:37:49;;;;;;;;;;;19.40;76.60;;;;;;6131788;23;20137;-96
2023/06/19 08:44:17;;;;;;;;;;;19.50;76.50;;;;;;6012369;23;19921;-94
2023/06/19 08:46:51;;;;;;;;;;;19.50;76.00;;;;;;6028036;23;20468;-94
2023/06/19 08:53:36;;;;;;;;;;;;;;;;;;;;;
2023/06/19 08:56:17;;;;;;;;;;;19.50;75.50;;;;;;6083401;23;19972;-92
2023/06/19 08:59:06;;;;;;;;;;;19.50;75.10;;;;;;6083268;23;19924;-96
2023/06/19 09:01:53;;;;;;;;;;;19.60;75.90;;;;;;6178538;23;19923;-96
2023/06/19 09:08:01;;;;;;;;;;;19.60;75.00;;;;;;6104804;23;19988;-96
2023/06/19 09:13:57;;;;;;;;;;;19.50;74.70;;;;;;6089631;23;19921;-96
2023/06/19 09:19:34;;;;;;;;;;;19.40;75.00;;;;;;6166354;23;19920;-96
2023/06/19 09:22:09;;;;;;;;;;;19.40;74.70;;;;;;6081122;23;19921;-96
2023/06/19 09:25:33;;;;;;;;;;;;;;;;;;;;;
2023/06/19 09:28:32;;;;;;;;;;;19.30;74.60;;;;;;6200225;23;19920;-95
2023/06/19 09:31:12;;;;;;;;;;;19.20;74.60;;;;;;6166237;23;19935;-96
2023/06/19 09:33:45;;;;;;;;;;;19.20;74.90;;;;;;6138871;23;19936;-94
2023/06/19 09:36:21;;;;;;;;;;;19.20;75.40;;;;;;6108422;23;19926;-96
2023/06/19 09:38:48;;;;;;;;;;;19.10;75.00;;;;;;6186758;23;19985;-96
2023/06/19 09:41:15;;;;;;;;;;;19.10;74.70;;;;;;6140140;23;19967;-96
2023/06/19 09:43:42;;;;;;;;;;;19.10;74.60;;;;;;6149332;23;19983;-96
2023/06/19 09:46:17;;;;;;;;;;;19.10;74.40;;;;;;6185872;23;19998;-96
2023/06/19 09:48:58;;;;;;;;;;;19.10;74.80;;;;;;6169676;23;19926;-96
2023/06/19 09:51:43;;;;;;;;;;;19.10;74.70;;;;;;6159278;23;19920;-96
2023/06/19 09:55:01;;;;;;;;;;;;;;;;;;;;;
2023/06/19 09:57:35;;;;;;;;;;;19.20;74.30;;;;;;6166398;23;20344;-96
2023/06/19 10:00:50;;;;;;;;;;;19.10;73.80;;;;;;6194934;23;19920;-96
2023/06/19 10:03:46;;;;;;;;;;;19.20;73.90;;;;;;6108292;23;19971;-96
2023/06/19 10:06:35;;;;;;;;;;;19.10;74.20;;;;;;6116087;23;19975;-93
2023/06/19 10:09:36;;;;;;;;;;;19.10;74.10;;;;;;6096070;23;19928;-96
2023/06/19 10:12:14;;;;;;;;;;;19.10;73.80;;;;;;6043156;23;19922;-95
2023/06/19 10:18:31;;;;;;;;;;;19.20;73.60;;;;;;6205562;23;19920;-96
2023/06/19 10:22:15;;;;;;;;;;;;;;;;;;;;;
2023/06/19 10:28:27;;;;;;;;;;;19.40;73.50;;;;;;6025137;23;19964;-96
2023/06/19 10:31:40;;;;;;;;;;;19.50;73.20;;;;;;6012766;23;19965;-96
2023/06/19 10:34:13;;;;;;;;;;;19.50;73.50;;;;;;6021803;23;19928;-96
2023/06/19 10:36:58;;;;;;;;;;;19.50;73.00;;;;;;6089260;23;20086;-96
2023/06/19 10:46:01;;;;;;;;;;;19.60;72.30;;;;;;6124528;23;19925;-96
2023/06/19 10:48:42;;;;;;;;;;;19.70;72.70;;;;;;6121009;23;20001;-94
2023/06/19 10:54:16;;;;;;;;;;;19.70;72.70;;;;;;6160259;23;19920;-96
2023/06/19 10:57:08;;;;;;;;;;;19.70;72.30;;;;;;6218245;23;19915;-95
2023/06/19 11:00:45;;;;;;;;;;;19.90;72.10;;;;;;6126222;23;20324;-96
2023/06/19 11:03:39;;;;;;;;;;;19.90;71.40;;;;;;6187467;22;19919;-96
2023/06/19 11:06:32;;;;;;;;;;;19.90;71.70;;;;;;6202151;23;19966;-96
2023/06/19 11:09:00;;;;;;;;;;;20.00;71.90;;;;;;6190720;23;19919;-96
2023/06/19 11:12:07;;;;;;;;;;;19.90;71.70;;;;;;6193269;23;19919;-96
2023/06/19 11:14:39;;;;;;;;;;;19.90;72.80;;;;;;6144542;23;19919;-96
2023/06/19 11:21:00;;;;;;;;;;;20.00;72.20;;;;;;6136097;23;19964;-96
2023/06/19 11:23:40;;;;;;;;;;;20.00;71.20;;;;;;6136426;23;19924;-94
2023/06/19 11:26:26;;;;;;;;;;;20.10;71.50;;;;;;6115133;23;20734;-96
2023/06/19 11:29:02;;;;;;;;;;;;;;;;;;;;;
2023/06/19 11:31:33;;;;;;;;;;;20.10;71.50;;;;;;6189830;23;19919;-94
2023/06/19 11:34:08;;;;;;;;;;;20.20;71.40;;;;;;6148585;23;19920;-96
2023/06/19 11:37:01;;;;;;;;;;;20.20;71.10;;;;;;6158445;23;20474;-96
2023/06/19 11:39:44;;;;;;;;;;;20.30;70.50;;;;;;6190853;23;20392;-96
2023/06/19 11:42:28;;;;;;;;;;;20.30;70.30;;;;;;6124410;23;19924;-95
2023/06/19 11:48:23;;;;;;;;;;;20.50;69.10;;;;;;6143103;23;19947;-95
2023/06/19 11:50:52;;;;;;;;;;;20.70;69.60;;;;;;6190269;23;19942;-96
2023/06/19 11:53:39;;;;;;;;;;;20.70;69.20;;;;;;6141506;23;19983;-96
2023/06/19 11:56:29;;;;;;;;;;;20.90;68.40;;;;;;6157644;23;19924;-94
2023/06/19 12:02:25;;;;;;;;;;;20.80;67.90;;;;;;6047538;23;20656;-93
2023/06/19 12:05:34;;;;;;;;;;;;;;;;;;;;;
2023/06/19 12:11:32;;;;;;;;;;;20.80;68.10;;;;;;5916654;24;19947;-95
2023/06/19 12:18:19;;;;;;;;;;;20.90;68.20;;;;;;5918383;24;19946;-96
2023/06/19 12:21:00;;;;;;;;;;;21.00;68.00;;;;;;5903842;24;20306;-96
2023/06/19 12:23:51;;;;;;;;;;;21.10;67.50;;;;;;5888044;24;19923;-96
2023/06/19 12:26:24;;;;;;;;;;;21.00;67.50;;;;;;5920290;24;20438;-92
2023/06/19 12:29:37;;;;;;;;;;;20.90;67.20;;;;;;5983646;23;19923;-95
2023/06/19 12:32:02;;;;;;;;;;;21.00;67.20;;;;;;5951111;24;20403;-92
2023/06/19 12:34:34;;;;;;;;;;;21.00;66.90;;;;;;5929179;24;19950;-95
2023/06/19 12:37:07;;;;;;;;;;;21.10;66.80;;;;;;5942174;24;20298;-96
2023/06/19 12:39:56;;;;;;;;;;;21.10;66.90;;;;;;5934588;24;20027;-96
2023/06/19 12:42:51;;;;;;;;;;;21.00;68.30;;;;;;5958779;23;19927;-96
2023/06/19 12:49:37;;;;;;;;;;;21.10;67.10;;;;;;5961000;23;19923;-96
2023/06/19 12:52:21;;;;;;;;;;;21.30;67.70;;;;;;5896517;24;19924;-96
2023/06/19 12:54:52;;;;;;;;;;;21.40;66.70;;;;;;5876276;24;20237;-95
2023/06/19 12:57:39;;;;;;;;;;;;;;;;;;;;;
2023/06/19 13:00:31;;;;;;;;;;;21.70;66.80;;;;;;5876213;24;19923;-93
2023/06/19 13:06:27;;;;;;;;;;;21.80;66.10;;;;;;6143681;23;19934;-93
2023/06/19 13:09:05;;;;;;;;;;;21.80;66.50;;;;;;6186161;23;20338;-94
2023/06/19 13:11:40;;;;;;;;;;;21.70;65.10;;;;;;6244151;23;19920;-95
2023/06/19 13:14:08;;;;;;;;;;;21.80;65.20;;;;;;6174582;23;19950;-94
2023/06/19 13:17:10;;;;;;;;;;;21.90;65.40;;;;;;6207383;23;19916;-96
2023/06/19 13:19:53;;;;;;;;;;;22.00;66.00;;;;;;6192591;23;19924;-94
2023/06/19 13:26:09;;;;;;;;;;;21.90;65.60;;;;;;6099649;23;20316;-95
2023/06/19 13:29:11;;;;;;;;;;;22.10;65.10;;;;;;6116424;23;19984;-96
2023/06/19 13:32:15;;;;;;;;;;;22.10;66.00;;;;;;6102672;23;19921;-96
2023/06/19 13:35:07;;;;;;;;;;;22.10;65.20;;;;;;6116514;23;19919;-96
2023/06/19 13:37:51;;;;;;;;;;;22.20;64.00;;;;;;6187972;23;19935;-95
2023/06/19 13:40:33;;;;;;;;;;;22.20;63.50;;;;;;6105292;23;19931;-96
2023/06/19 13:43:12;;;;;;;;;;;22.30;64.30;;;;;;6110535;23;19921;-94
2023/06/19 13:46:00;;;;;;;;;;;22.40;63.20;;;;;;6155160;23;19927;-95
2023/06/19 13:48:38;;;;;;;;;;;22.30;63.60;;;;;;6227627;22;19989;-96
2023/06/19 13:55:20;;;;;;;;;;;;;;;;;;;;;
2023/06/19 13:57:46;;;;;;;;;;;22.60;62.60;;;;;;6057804;23;19922;-95
2023/06/19 14:00:15;;;;;;;;;;;22.80;62.70;;;;;;6076454;23;19928;-96
2023/06/19 14:02:59;;;;;;;;;;;22.90;63.00;;;;;;6072114;23;19921;-96
2023/06/19 14:05:39;;;;;;;;;;;23.00;62.40;;;;;;6172327;23;19919;-94
2023/06/19 14:08:05;;;;;;;;;;;23.10;62.00;;;;;;6142064;23;20011;-95
2023/06/19 14:10:55;;;;;;;;;;;23.10;61.80;;;;;;6131644;23;19952;-96
2023/06/19 14:13:57;;;;;;;;;;;23.00;62.60;;;;;;6117886;23;19931;-96
2023/06/19 14:16:38;;;;;;;;;;;23.20;62.10;;;;;;6035073;23;20004;-96
2023/06/19 14:19:17;;;;;;;;;;;23.30;61.20;;;;;;6012338;23;20111;-93
2023/06/19 14:21:49;;;;;;;;;;;23.30;60.70;;;;;;6095925;23;19921;-96
2023/06/19 14:24:35;;;;;;;;;;;23.20;61.60;;;;;;5980193;23;20337;-93
2023/06/19 14:27:27;;;;;;;;;;;23.30;60.90;;;;;;6036027;23;19940;-96
2023/06/19 14:29:53;;;;;;;;;;;23.30;60.60;;;;;;6054528;23;19920;-94
2023/06/19 14:32:30;;;;;;;;;;;23.40;61.40;;;;;;6114421;23;19933;-95
2023/06/19 14:35:33;;;;;;;;;;;23.50;61.00;;;;;;6042694;23;19960;-96
2023/06/19 14:38:15;;;;;;;;;;;23.50;61.80;;;;;;6110979;23;20380;-96
2023/06/19 14:44:09;;;;;;;;;;;23.60;60.90;;;;;;6073439;23;19925;-96
2023/06/19 14:46:39;;;;;;;;;;;23.60;60.90;;;;;;6042528;23;19929;-96
2023/06/19 14:49:19;;;;;;;;;;;23.60;60.00;;;;;;6101400;23;20024;-96
2023/06/19 14:55:10;;;;;;;;;;;23.60;60.30;;;;;;6035116;23;19921;-93
2023/06/19 14:57:39;;;;;;;;;;;23.70;59.70;;;;;;6028167;23;19921;-93
2023/06/19 15:04:01;;;;;;;;;;;;;;;;;;;;;
2023/06/19 15:07:09;;;;;;;;;;;23.80;60.30;;;;;;6137186;23;19972;-93
2023/06/19 15:10:36;;;;;;;;;;;23.90;59.10;;;;;;6101556;23;19920;-96
2023/06/19 15:13:04;;;;;;;;;;;23.90;59.80;;;;;;6047790;23;20473;-96
2023/06/19 15:15:30;;;;;;;;;;;23.80;59.50;;;;;;6084757;22;20364;-96
2023/06/19 15:18:11;;;;;;;;;;;23.80;58.90;;;;;;6218851;22;19919;-96
2023/06/19 15:20:46;;;;;;;;;;;23.80;60.00;;;;;;6225950;22;19963;-96
2023/06/19 15:23:17;;;;;;;;;;;23.80;59.40;;;;;;6223797;22;19921;-94
2023/06/19 15:25:57;;;;;;;;;;;;;;;;;;;;;
2023/06/19 15:28:38;;;;;;;;;;;23.90;59.20;;;;;;6210716;23;19999;-96
2023/06/19 15:31:09;;;;;;;;;;;24.00;59.20;;;;;;6219690;22;19923;-96
2023/06/19 15:34:15;;;;;;;;;;;24.20;59.00;;;;;;6251744;22;19958;-96
2023/06/19 15:36:44;;;;;;;;;;;24.30;58.70;;;;;;6216409;22;19923;-95
2023/06/19 15:39:16;;;;;;;;;;;24.30;57.30;;;;;;6278370;22;19919;-96
2023/06/19 15:42:00;;;;;;;;;;;24.20;58.40;;;;;;6228531;22;19919;-96
2023/06/19 15:44:32;;;;;;;;;;;24.40;59.00;;;;;;6225240;22;19927;-95
2023/06/19 15:47:02;;;;;;;;;;;24.40;58.20;;;;;;6220759;22;19945;-96
2023/06/19 15:49:27;;;;;;;;;;;24.40;56.50;;;;;;6225945;22;19945;-95
2023/06/19 15:51:53;;;;;;;;;;;24.40;57.50;;;;;;6249719;22;20002;-95
2023/06/19 15:54:29;;;;;;;;;;;24.30;56.60;;;;;;6224600;22;20271;-95
2023/06/19 15:56:57;;;;;;;;;;;24.20;57.30;;;;;;6219139;22;19919;-94
2023/06/19 15:59:29;;;;;;;;;;;24.20;56.40;;;;;;6226765;22;19919;-96
2023/06/19 16:05:41;;;;;;;;;;;24.20;57.00;;;;;;6256096;22;19920;-96
2023/06/19 16:11:12;;;;;;;;;;;24.40;57.50;;;;;;6245819;22;19919;-95
2023/06/19 16:13:38;;;;;;;;;;;24.30;56.20;;;;;;6185195;23;19956;-96
2023/06/19 16:16:36;;;;;;;;;;;24.20;56.00;;;;;;6162454;22;19998;-96
2023/06/19 16:19:30;;;;;;;;;;;24.20;56.20;;;;;;6207376;22;19926;-96
2023/06/19 16:25:27;;;;;;;;;;;24.30;56.00;;;;;;6098298;23;19922;-95
2023/06/19 16:31:12;;;;;;;;;;;24.20;57.30;;;;;;6129549;23;20335;-95
2023/06/19 16:34:09;;;;;;;;;;;24.20;56.40;;;;;;6175372;22;19926;-96
2023/06/19 16:43:54;;;;;;;;;;;24.20;56.50;;;;;;6231475;22;19919;-95
2023/06/19 16:47:24;;;;;;;;;;;24.10;57.10;;;;;;6221185;22;19954;-96
2023/06/19 16:49:50;;;;;;;;;;;24.10;57.60;;;;;;6233778;22;19963;-96
2023/06/19 16:52:33;;;;;;;;;;;24.00;56.50;;;;;;6158827;22;19959;-94
2023/06/19 16:55:27;;;;;;;;;;;;;;;;;;;;;
2023/06/19 16:58:17;;;;;;;;;;;24.00;58.00;;;;;;6222552;22;20296;-96
2023/06/19 17:01:12;;;;;;;;;;;24.00;57.10;;;;;;6216509;22;19974;-96
2023/06/19 17:04:12;;;;;;;;;;;24.00;57.50;;;;;;6182738;23;19919;-95
2023/06/19 17:07:01;;;;;;;;;;;24.00;57.40;;;;;;6180048;23;20000;-96
2023/06/19 17:12:54;;;;;;;;;;;24.00;57.30;;;;;;6082323;23;19929;-94
2023/06/19 17:15:19;;;;;;;;;;;24.00;56.60;;;;;;6188490;23;19920;-95
2023/06/19 17:17:55;;;;;;;;;;;23.80;56.70;;;;;;6166995;23;20392;-96
2023/06/19 17:24:13;;;;;;;;;;;23.60;57.00;;;;;;6220577;23;19944;-95
2023/06/19 17:26:56;;;;;;;;;;;23.60;56.90;;;;;;6235723;23;19930;-96
2023/06/19 17:29:26;;;;;;;;;;;23.60;57.70;;;;;;6125730;23;20229;-95
2023/06/19 17:32:05;;;;;;;;;;;23.60;56.70;;;;;;6193194;23;20323;-96
2023/06/19 17:34:31;;;;;;;;;;;23.50;57.60;;;;;;6093887;23;19930;-96
2023/06/19 17:43:40;;;;;;;;;;;23.20;56.90;;;;;;6051708;23;20404;-94
2023/06/19 17:46:09;;;;;;;;;;;23.00;57.20;;;;;;6189666;22;19969;-92
2023/06/19 17:49:10;;;;;;;;;;;23.00;57.50;;;;;;6212120;22;20413;-94
2023/06/19 17:51:47;;;;;;;;;;;22.80;57.60;;;;;;6256827;22;20277;-95
2023/06/19 17:54:44;;;;;;;;;;;22.80;58.00;;;;;;6213654;22;19919;-95
2023/06/19 17:57:13;;;;;;;;;;;22.70;58.00;;;;;;6233361;22;20329;-95
2023/06/19 17:59:39;;;;;;;;;;;22.70;57.90;;;;;;6257087;22;19926;-94
2023/06/19 18:02:05;;;;;;;;;;;22.60;57.90;;;;;;6254500;22;19919;-92
2023/06/19 18:04:41;;;;;;;;;;;22.50;57.90;;;;;;6231061;22;19965;-95
2023/06/19 18:07:11;;;;;;;;;;;22.50;58.40;;;;;;6244507;22;19923;-95
2023/06/19 18:09:47;;;;;;;;;;;22.50;58.40;;;;;;6255843;22;20428;-94
2023/06/19 18:12:41;;;;;;;;;;;22.40;58.60;;;;;;6229768;22;20396;-94
2023/06/19 18:15:10;;;;;;;;;;;22.30;58.70;;;;;;6221895;22;19923;-96
2023/06/19 18:17:50;;;;;;;;;;;22.30;58.60;;;;;;6217046;22;19924;-96
2023/06/19 18:20:33;;;;;;;;;;;22.20;58.70;;;;;;6214943;22;19934;-94
2023/06/19 18:23:28;;;;;;;;;;;22.10;59.00;;;;;;6219289;22;19923;-95
2023/06/19 18:26:17;;;;;;;;;;;22.10;59.10;;;;;;6245144;22;19934;-95
2023/06/19 18:28:55;;;;;;;;;;;;;;;;;;;;;
2023/06/19 18:34:45;;;;;;;;;;;21.90;60.00;;;;;;6138564;23;19920;-95
2023/06/19 18:37:27;;;;;;;;;;;21.90;60.40;;;;;;6151361;23;19920;-96
2023/06/19 18:39:56;;;;;;;;;;;21.80;60.80;;;;;;6254840;22;19919;-96
2023/06/19 18:43:10;;;;;;;;;;;21.70;60.60;;;;;;6257871;22;19927;-95
2023/06/19 18:46:39;;;;;;;;;;;21.70;61.00;;;;;;6254991;22;19993;-94
2023/06/19 18:48:44;;;;;;;;;;;21.50;61.00;;;;;;6212457;22;20346;-95
2023/06/19 18:54:44;;;;;;;;;;;21.50;61.10;;;;;;6214843;22;19923;-95
2023/06/19 18:57:16;;;;;;;;;;;21.40;61.30;;;;;;6218935;22;20011;-95
2023/06/19 18:59:44;;;;;;;;;;;21.30;61.50;;;;;;6190834;22;19986;-93
2023/06/19 19:05:53;;;;;;;;;;;;;;;;;;;;;
2023/06/19 19:12:40;;;;;;;;;;;20.90;61.80;;;;;;6022279;23;19934;-95
2023/06/19 19:19:37;;;;;;;;;;;;;;;;;;;;;
2023/06/19 19:22:27;;;;;;;;;;;;;;;;;;;;;
2023/06/19 19:53:56;;;;;;;;;;;20.00;64.20;;;;;;5881632;24;19924;-92
2023/06/19 23:04:43;;;;;;;;;;;16.40;75.90;;;;;;5468837;22;15831486;-94
